METAR stanice u blizini

 

LYBE - Beograd / Surčin, Srbija
Ažurirano: 25/08/2019 22:30
Vedro
Vedro
 Pravac vetra ZSZ
Vetar: ZSZ 13 km/h
Temperatura: 25°C
Tačka rose: 17°C
Vlažnost: 61%
Pritisak: 1018 hPa
Pregled: Vedro
Vidljivost: greater than 10 km
2019/08/25 20:30 LYBE 252030Z 30007KT CAVOK 25/17 Q1018 NOSIG
LYBT - Beograd / Batajnica, Srbija
Ažurirano: 25/08/2019 22:30
Vedro
Vedro
 Pravac vetra varies
Vetar: varies 4 km/h
Temperatura: 23°C
Tačka rose: 16°C
Vlažnost: 65%
Pritisak: 1018 hPa
Pregled: Vedro
Vidljivost: greater than 10 km
2019/08/25 20:30 LYBT 252030Z VRB02KT CAVOK 23/16 Q1018 NOSIG
LYVR - Vršac, Srbija
Ažurirano: 25/08/2019 22:30
Vedro
Vedro
 Pravac vetra SI
Vetar: SI 6 km/h
Temperatura: 23°C
Tačka rose: 16°C
Vlažnost: 65%
Pritisak: 1018 hPa
Pregled: Vedro
Vidljivost: greater than 10 km
2019/08/25 20:30 LYVR 252030Z 04003KT 330V090 CAVOK 23/16 Q1018 NOSIG
 
LYKV - Lađevci, Srbija
Ažurirano: 25/08/2019 22:30
Partly Cloudy
Partly Cloudy
 Pravac vetra varies
Vetar: varies 4 km/h
Temperatura: 22°C
Tačka rose: 21°C
Vlažnost: 94%
Pritisak: 1020 hPa
Oblaci: Partly Cloudy
Vidljivost: 10 km
Cloud details: Partly Cloudy 1219 m
2019/08/25 20:30 LYKV 252030Z VRB02KT 9999 SCT040 22/21 Q1020 TEMPO 13015G25KT 3000 TSRA BKN033CB
LYNI - Niš, Srbija
Ažurirano: 25/08/2019 22:30
Vedro
Vedro
 Pravac vetra SZ
Vetar: SZ 6 km/h
Temperatura: 24°C
Tačka rose: 15°C
Vlažnost: 57%
Pritisak: 1018 hPa
Pregled: Vedro
Vidljivost: greater than 10 km
2019/08/25 20:30 LYNI 252030Z 32003KT 270V360 CAVOK 24/15 Q1018 NOSIG
BKPR - Priština, Srbija
Ažurirano: 25/08/2019 23:00
Thunderstorm, Delimično oblačno
Thunderstorm, Delimično oblačno
 Pravac vetra Z
Vetar: Z 17 km/h
Temperatura: 20°C
Tačka rose: 13°C
Vlažnost: 64%
Pritisak: 1020 hPa
Pregled: Thunderstorm
Oblaci: Partly Cloudy
Vidljivost: 10 km
Cloud details: Partly Cloudy 914 m
Partly Cloudy 1219 m
2019/08/25 21:00 BKPR 252100Z 28009KT 9999 TS SCT030CB SCT040 20/13 Q1020 NOSIG
 
LHPP - Pecs / Pogany, Hungary
Ažurirano: 25/08/2019 18:45
NOT Current
Vedro
Vedro
 Pravac vetra I
Vetar: I 4 km/h
Temperatura: 27°C
Heat Index: 28°C
Tačka rose: 19°C
Vlažnost: 62%
Pritisak: 1019 hPa
Pregled: Vedro
Vidljivost: greater than 10 km
2019/08/25 16:45 LHPP 251645Z 10002KT CAVOK 27/19 Q1019
LHUD - Szeged, Hungary
Ažurirano: 04/07/2019 01:45
NOT Current
Vedro
Vedro
 Pravac vetra S
Vetar: S 7 km/h
Temperatura: 18°C
Tačka rose: 13°C
Vlažnost: 73%
Pritisak: 1019 hPa
Pregled: Vedro
Vidljivost: greater than 10 km
2019/07/03 23:45 LHUD 032345Z 35004KT CAVOK 18/13 Q1019
LRTR - Timisoara, Romania
Ažurirano: 25/08/2019 22:30
Thunderstorm rain, Pretežno oblačno
Thunderstorm rain, Pretežno oblačno
 Pravac vetra ZSZ
Vetar: ZSZ 15 km/h
Temperatura: 24°C
Tačka rose: 18°C
Vlažnost: 69%
Pritisak: 1019 hPa
Pregled: Thunderstorm Rain
Oblaci: Mostly Cloudy
Vidljivost: 9 km
Cloud details: Few Clouds 488 m
Mostly Cloudy 1676 m
2019/08/25 20:30 LRTR 252030Z 30008KT 9000 TSRA FEW016 BKN055CB 24/18 Q1019 RESHRA R11/290095
 
LRCV - Craiova, Romania
Ažurirano: 25/08/2019 22:30
Vedro
Vedro
 Pravac vetra ISI
Vetar: ISI 24 km/h
Temperatura: 26°C
Tačka rose: 16°C
Vlažnost: 54%
Pritisak: 1019 hPa
Oblaci: Vedro
Vidljivost: 10 km
2019/08/25 20:30 LRCV 252030Z AUTO 06013KT 9999 NCD 26/16 Q1019
LBSF - Sofia, Bulgaria
Ažurirano: 25/08/2019 22:30
Vedro
Vedro
 Pravac vetra JI
Vetar: JI 7 km/h
Temperatura: 23°C
Tačka rose: 13°C
Vlažnost: 53%
Pritisak: 1020 hPa
Pregled: Vedro
Vidljivost: greater than 10 km
2019/08/25 20:30 LBSF 252030Z 14004KT CAVOK 23/13 Q1020 NOSIG
LWSK - Skoplje, Makedonija
Ažurirano: 25/08/2019 22:30
Few Clouds
Few Clouds
 Pravac vetra S
Vetar: S 9 km/h
Temperatura: 29°C
Tačka rose: 12°C
Vlažnost: 35%
Pritisak: 1017 hPa
Oblaci: Few Clouds
Vidljivost: 10 km
Cloud details: Few Clouds 3048 m
2019/08/25 20:30 LWSK 252030Z 35005KT 300V010 9999 FEW100 29/12 Q1017 NOSIG
 
LYPG - Podgorica, Crna Gora
Ažurirano: 25/08/2019 22:30
Few Clouds
Few Clouds
 Pravac vetra SSZ
Vetar: SSZ 17 km/h
Temperatura: 29°C
Tačka rose: 13°C
Vlažnost: 37%
Pritisak: 1015 hPa
Oblaci: Few Clouds
Vidljivost: 10 km
Cloud details: Few Clouds 1219 m
2019/08/25 20:30 LYPG 252030Z 34009KT 9999 FEW040 29/13 Q1015 TEMPO TS FEW033CB SCT040
LQSA - Sarajevo, Bosna i Hercegovina
Ažurirano: 25/08/2019 22:30
Vedro
Vedro
 Pravac vetra calm
Vetar: Tišina
Temperatura: 15°C
Tačka rose: 15°C
Vlažnost: 100%
Pritisak: 1022 hPa
Pregled: Vedro
Vidljivost: greater than 10 km
2019/08/25 20:30 LQSA 252030Z 00000KT CAVOK 15/15 Q1022 NOSIG
LDOS - Osijek, Hrvatksa
Ažurirano: 25/08/2019 22:30
Vedro
Vedro
 Pravac vetra varies
Vetar: varies 4 km/h
Temperatura: 23°C
Tačka rose: 17°C
Vlažnost: 69%
Pritisak: 1019 hPa
Pregled: Vedro
Vidljivost: greater than 10 km
2019/08/25 20:30 LDOS 252030Z VRB02KT CAVOK 23/17 Q1019